Time;durP1;ratioP1;P1;durP2;ratioP2;P2;SDS_P1;SDS_P2;PMS_P1;PMS_P2;Temp;Humidity;BMP_temperature;BMP_pressure;BME280_temperature;BME280_humidity;BME280_pressure;Samples;Min_cycle;Max_cycle;Signal;HPM_P1;HPM_P2
2022/05/10 00:00:56;;;;;;;11.43;4.95;;;;;;;-141.50;100.00;63355.56;5075293;28;20563;-79
2022/05/10 00:03:36;;;;;;;11.90;5.07;;;;;;;-141.50;100.00;63355.56;5056791;28;20071;-81
2022/05/10 00:06:05;;;;;;;11.48;5.38;;;;;;;-141.50;100.00;63355.56;5088949;28;20066;-79
2022/05/10 00:08:32;;;;;;;13.50;5.55;;;;;;;-141.50;100.00;63355.56;5078145;28;20059;-80
2022/05/10 00:10:59;;;;;;;12.98;5.22;;;;;;;-141.50;100.00;63355.56;5072554;28;20118;-80
2022/05/10 00:13:25;;;;;;;15.20;5.40;;;;;;;-141.50;100.00;63355.56;5055128;28;20071;-80
2022/05/10 00:15:52;;;;;;;15.50;5.53;;;;;;;-141.50;100.00;63355.56;5055972;28;20090;-80
2022/05/10 00:18:22;;;;;;;14.23;5.55;;;;;;;-141.50;100.00;63355.56;5078512;28;20060;-79
2022/05/10 00:20:48;;;;;;;15.20;5.43;;;;;;;-141.50;100.00;63355.56;5060362;28;20102;-78
2022/05/10 00:23:15;;;;;;;15.57;5.30;;;;;;;-141.50;100.00;63355.56;5078123;28;20044;-80
2022/05/10 00:25:42;;;;;;;11.32;5.30;;;;;;;-141.50;100.00;63355.56;5071503;28;20157;-78
2022/05/10 00:28:09;;;;;;;11.32;5.20;;;;;;;-141.50;100.00;63355.56;5078139;28;20057;-80
2022/05/10 00:30:35;;;;;;;13.38;5.43;;;;;;;-141.50;100.00;63355.56;5074488;28;20132;-81
2022/05/10 00:33:02;;;;;;;14.38;5.10;;;;;;;-141.50;100.00;63355.56;5076846;28;20044;-78
2022/05/10 00:35:31;;;;;;;11.50;5.35;;;;;;;-141.50;100.00;63355.56;5059999;28;20057;-83
2022/05/10 00:38:00;;;;;;;8.70;4.97;;;;;;;-141.50;100.00;63355.56;5074309;28;20154;-82
2022/05/10 00:40:34;;;;;;;19.13;6.38;;;;;;;-141.50;100.00;63355.56;5078169;28;20124;-78
2022/05/10 00:43:06;;;;;;;8.95;5.03;;;;;;;-141.50;100.00;63355.56;5089226;28;20415;-77
2022/05/10 00:45:45;;;;;;;13.27;5.13;;;;;;;-141.50;100.00;63355.56;5077772;28;20095;-81
2022/05/10 00:48:29;;;;;;;14.02;5.28;;;;;;;-141.50;100.00;63355.56;5076108;28;20083;-82
2022/05/10 00:51:03;;;;;;;10.75;5.60;;;;;;;-141.50;100.00;63355.56;5055524;28;20048;-79
2022/05/10 00:53:49;;;;;;;12.55;6.13;;;;;;;-141.50;100.00;63355.56;5069569;28;20094;-81
2022/05/10 00:56:33;;;;;;;14.13;5.30;;;;;;;-141.50;100.00;63355.56;5073483;28;20080;-78
2022/05/10 00:59:19;;;;;;;10.35;5.40;;;;;;;-141.50;100.00;63355.56;5074976;28;20048;-82
2022/05/10 01:01:52;;;;;;;12.00;5.63;;;;;;;-141.50;100.00;63355.56;5055948;28;20060;-82
2022/05/10 01:04:26;;;;;;;10.63;5.72;;;;;;;-141.50;100.00;63355.56;5077374;28;20056;-80
2022/05/10 01:06:59;;;;;;;11.88;6.40;;;;;;;-141.50;100.00;63355.56;5103257;28;20094;-80
2022/05/10 01:09:55;;;;;;;11.85;5.50;;;;;;;-141.50;100.00;63355.56;5079829;28;20070;-78
2022/05/10 01:12:37;;;;;;;9.48;5.57;;;;;;;-141.50;100.00;63355.56;5079254;28;20044;-79
2022/05/10 01:15:09;;;;;;;10.43;6.03;;;;;;;-141.50;100.00;63355.56;5094814;28;20043;-80
2022/05/10 01:17:35;;;;;;;13.73;6.03;;;;;;;-141.50;100.00;63355.56;5094464;28;20604;-81
2022/05/10 01:20:04;;;;;;;11.00;6.40;;;;;;;-141.50;100.00;63355.56;5094579;28;20056;-82
2022/05/10 01:22:54;;;;;;;13.65;6.32;;;;;;;-141.50;100.00;63355.56;5076688;28;20075;-79
2022/05/10 01:25:39;;;;;;;16.90;6.82;;;;;;;-141.50;100.00;63355.56;5064130;28;20132;-81
2022/05/10 01:28:21;;;;;;;17.90;6.05;;;;;;;-141.50;100.00;63355.56;5052477;28;20124;-81
2022/05/10 01:30:49;;;;;;;13.65;6.40;;;;;;;-141.50;100.00;63355.56;5071949;28;20414;-76
2022/05/10 01:33:29;;;;;;;13.85;6.22;;;;;;;-141.50;100.00;63355.56;5053347;28;20567;-81
2022/05/10 01:36:14;;;;;;;14.30;6.55;;;;;;;-141.50;100.00;63355.56;5077540;28;20763;-81
2022/05/10 01:38:44;;;;;;;12.02;6.20;;;;;;;-141.50;100.00;63355.56;5072976;28;20049;-79
2022/05/10 01:41:23;;;;;;;15.15;6.13;;;;;;;-141.50;100.00;63355.56;5070672;28;20056;-78
2022/05/10 01:43:55;;;;;;;18.50;6.15;;;;;;;-141.50;100.00;63355.56;5071032;28;20114;-80
2022/05/10 01:46:29;;;;;;;9.82;5.93;;;;;;;-141.50;100.00;63355.56;5053214;28;20068;-77
2022/05/10 01:49:23;;;;;;;12.70;6.80;;;;;;;-141.50;100.00;63355.56;5075290;28;20045;-77
2022/05/10 01:51:59;;;;;;;11.82;6.15;;;;;;;-141.50;100.00;63355.56;5057367;28;20112;-81
2022/05/10 01:55:21;;;;;;;12.20;5.88;;;;;;;-141.50;100.00;63355.56;5056582;28;20048;-80
2022/05/10 01:57:48;;;;;;;13.73;7.43;;;;;;;-141.50;100.00;63355.56;5029632;28;20060;-80
2022/05/10 02:00:19;;;;;;;14.85;7.13;;;;;;;-141.50;100.00;63355.56;5074516;28;20416;-80
2022/05/10 02:03:05;;;;;;;16.25;8.07;;;;;;;-141.50;100.00;63355.56;5073236;28;20102;-80
2022/05/10 02:05:45;;;;;;;17.27;7.05;;;;;;;-141.50;100.00;63355.56;5076006;28;20342;-81
2022/05/10 02:08:27;;;;;;;12.13;7.28;;;;;;;-141.50;100.00;63355.56;5111016;28;20097;-79
2022/05/10 02:10:58;;;;;;;15.15;7.30;;;;;;;-141.50;100.00;63355.56;5113744;28;20107;-80
2022/05/10 02:13:31;;;;;;;15.07;7.65;;;;;;;-141.50;100.00;63355.56;5114221;28;20547;-80
2022/05/10 02:16:01;;;;;;;12.52;7.30;;;;;;;-141.50;100.00;63355.56;5095386;28;20051;-80
2022/05/10 02:18:37;;;;;;;14.02;7.85;;;;;;;-141.50;100.00;63355.56;5113510;28;20059;-78
2022/05/10 02:21:24;;;;;;;;;;;;;;;-141.50;100.00;63355.56;5114729;28;20078;-81
2022/05/10 02:23:55;;;;;;;14.00;7.57;;;;;;;-141.50;100.00;63355.56;5120062;28;19920;-77
2022/05/10 02:26:28;;;;;;;16.23;7.80;;;;;;;-141.50;100.00;63355.56;5096476;28;20032;-79
2022/05/10 02:29:13;;;;;;;14.60;7.88;;;;;;;-141.50;100.00;63355.56;5095881;28;20255;-77
2022/05/10 02:34:42;;;;;;;12.30;7.75;;;;;;;-141.50;100.00;63355.56;5094238;28;20048;-80
2022/05/10 02:37:08;;;;;;;15.32;7.60;;;;;;;-141.50;100.00;63355.56;5097865;28;20098;-82
2022/05/10 02:39:35;;;;;;;18.15;8.40;;;;;;;-141.50;100.00;63355.56;5095286;28;20113;-81
2022/05/10 02:42:04;;;;;;;15.43;7.63;;;;;;;-141.50;100.00;63355.56;5075690;28;20048;-81
2022/05/10 02:44:34;;;;;;;13.80;7.93;;;;;;;-141.50;100.00;63355.56;5075128;28;20086;-80
2022/05/10 02:47:01;;;;;;;13.18;8.02;;;;;;;-141.50;100.00;63355.56;5108425;28;20047;-78
2022/05/10 02:49:27;;;;;;;12.60;7.90;;;;;;;-141.50;100.00;63355.56;5095346;28;20048;-82
2022/05/10 02:51:55;;;;;;;15.75;8.50;;;;;;;-141.50;100.00;63355.56;5113086;28;20051;-80
2022/05/10 02:54:21;;;;;;;16.73;8.35;;;;;;;-141.50;100.00;63355.56;5096283;28;20059;-82
2022/05/10 02:56:50;;;;;;;17.85;8.48;;;;;;;-141.50;100.00;63355.56;5113710;28;20043;-82
2022/05/10 02:59:24;;;;;;;18.60;8.23;;;;;;;-141.50;100.00;63355.56;5094857;28;20048;-81
2022/05/10 03:02:08;;;;;;;18.02;9.02;;;;;;;-141.50;100.00;63355.56;5101546;28;20086;-78
2022/05/10 03:04:41;;;;;;;17.77;9.25;;;;;;;-141.50;100.00;63355.56;5096615;28;20078;-81
2022/05/10 03:07:08;;;;;;;20.98;8.98;;;;;;;-141.50;100.00;63355.56;5102448;28;20112;-80
2022/05/10 03:09:35;;;;;;;16.33;9.60;;;;;;;-141.50;100.00;63355.56;5091634;28;20083;-81
2022/05/10 03:12:04;;;;;;;18.13;8.88;;;;;;;-141.50;100.00;63355.56;5092571;28;20123;-80
2022/05/10 03:14:31;;;;;;;19.95;8.65;;;;;;;-141.50;100.00;63355.56;5090388;28;20612;-79
2022/05/10 03:16:58;;;;;;;20.15;9.38;;;;;;;-141.50;100.00;63355.56;5091666;28;20047;-78
2022/05/10 03:19:24;;;;;;;16.15;8.98;;;;;;;-141.50;100.00;63355.56;5110426;28;20131;-78
2022/05/10 03:21:51;;;;;;;16.55;8.65;;;;;;;-141.50;100.00;63355.56;5109409;28;20087;-80
2022/05/10 03:24:17;;;;;;;15.38;8.95;;;;;;;-141.50;100.00;63355.56;5071229;28;20083;-80
2022/05/10 03:26:48;;;;;;;15.13;8.70;;;;;;;-141.50;100.00;63355.56;5089615;28;20500;-78
2022/05/10 03:29:15;;;;;;;14.65;8.65;;;;;;;-141.50;100.00;63355.56;5090161;28;20135;-81
2022/05/10 03:31:43;;;;;;;12.93;8.25;;;;;;;-141.50;100.00;63355.56;5090774;28;20525;-80
2022/05/10 03:36:56;;;;;;;18.10;9.38;;;;;;;-141.50;100.00;63355.56;5101417;28;20048;-79
2022/05/10 03:39:23;;;;;;;18.48;8.90;;;;;;;-141.50;100.00;63355.56;5084320;28;20052;-83
2022/05/10 03:41:49;;;;;;;21.10;9.73;;;;;;;-141.50;100.00;63355.56;5100565;28;20052;-79
2022/05/10 03:44:16;;;;;;;15.18;8.52;;;;;;;-141.50;100.00;63355.56;5081125;28;20044;-82
2022/05/10 03:46:44;;;;;;;13.80;8.85;;;;;;;-141.50;100.00;63355.56;5080636;28;20091;-80
2022/05/10 03:49:12;;;;;;;14.80;8.95;;;;;;;-141.50;100.00;63355.56;5078153;28;20093;-81
2022/05/10 03:51:45;;;;;;;15.43;7.95;;;;;;;-141.50;100.00;63355.56;5093719;28;20081;-83
2022/05/10 03:54:11;;;;;;;18.52;8.00;;;;;;;-141.50;100.00;63355.56;5075277;28;20074;-83
2022/05/10 03:56:38;;;;;;;17.23;7.70;;;;;;;-141.50;100.00;63355.56;5094054;28;20083;-81
2022/05/10 03:59:05;;;;;;;14.57;7.32;;;;;;;-141.50;100.00;63355.56;5075230;28;20141;-82
2022/05/10 04:01:32;;;;;;;19.45;8.18;;;;;;;-141.50;100.00;63355.56;5090382;28;20048;-79
2022/05/10 04:04:01;;;;;;;17.70;6.90;;;;;;;-141.50;100.00;63355.56;5071731;28;20080;-79
2022/05/10 04:06:28;;;;;;;16.65;7.43;;;;;;;-141.50;100.00;63355.56;5079783;28;20473;-80
2022/05/10 04:08:54;;;;;;;12.25;7.13;;;;;;;-141.50;100.00;63355.56;5074732;28;20748;-78
2022/05/10 04:11:21;;;;;;;15.75;7.53;;;;;;;-141.50;100.00;63355.56;5092351;28;20048;-80
2022/05/10 04:13:48;;;;;;;14.10;7.25;;;;;;;-141.50;100.00;63355.56;5094932;28;20052;-79
2022/05/10 04:16:14;;;;;;;18.92;6.95;;;;;;;-141.50;100.00;63355.56;5079452;28;20085;-79
2022/05/10 04:18:41;;;;;;;19.55;7.93;;;;;;;-141.50;100.00;63355.56;5092023;28;20059;-80
2022/05/10 04:21:08;;;;;;;18.10;7.50;;;;;;;-141.50;100.00;63355.56;5070432;28;20079;-82
2022/05/10 04:23:35;;;;;;;21.40;8.02;;;;;;;-141.50;100.00;63355.56;5092229;28;20040;-81
2022/05/10 04:26:12;;;;;;;16.15;7.75;;;;;;;-141.50;100.00;63355.56;5073864;28;20130;-81
2022/05/10 04:28:39;;;;;;;19.25;8.30;;;;;;;-141.50;100.00;63355.56;5091506;28;20064;-79
2022/05/10 04:31:07;;;;;;;18.95;7.60;;;;;;;-141.50;100.00;63355.56;5096326;28;20083;-83
2022/05/10 04:33:33;;;;;;;12.60;7.32;;;;;;;-141.50;100.00;63355.56;5101353;28;20052;-79
2022/05/10 04:36:00;;;;;;;13.35;6.85;;;;;;;-141.50;100.00;63355.56;5098201;28;20056;-80
2022/05/10 04:38:27;;;;;;;19.23;7.60;;;;;;;-141.50;100.00;63355.56;5078538;28;20055;-78
2022/05/10 04:43:40;;;;;;;13.63;7.05;;;;;;;-141.50;100.00;63355.56;5098319;28;20059;-79
2022/05/10 04:46:06;;;;;;;18.25;7.38;;;;;;;-141.50;100.00;63355.56;5097058;28;20078;-79
2022/05/10 04:48:33;;;;;;;12.75;6.60;;;;;;;-141.50;100.00;63355.56;5079101;28;20066;-83
2022/05/10 04:51:01;;;;;;;17.73;6.63;;;;;;;-141.50;100.00;63355.56;5074506;28;20139;-80
2022/05/10 04:53:28;;;;;;;14.80;7.13;;;;;;;-141.50;100.00;63355.56;5091978;28;20074;-80
2022/05/10 04:55:55;;;;;;;15.52;7.75;;;;;;;-141.50;100.00;63355.56;5093110;28;20108;-82
2022/05/10 04:58:21;;;;;;;15.38;6.97;;;;;;;-141.50;100.00;63355.56;5093312;28;20488;-80
2022/05/10 05:00:48;;;;;;;16.65;7.53;;;;;;;-141.50;100.00;63355.56;5076486;28;20078;-82
2022/05/10 05:03:14;;;;;;;14.48;7.25;;;;;;;-141.50;100.00;63355.56;5094901;28;20048;-79
2022/05/10 05:05:41;;;;;;;16.98;7.60;;;;;;;-141.50;100.00;63355.56;5101542;28;20117;-84
2022/05/10 05:08:08;;;;;;;18.35;7.70;;;;;;;-141.50;100.00;63355.56;5098248;28;20056;-82
2022/05/10 05:10:35;;;;;;;19.63;7.72;;;;;;;-141.50;100.00;63355.56;5097111;28;20400;-81
2022/05/10 05:13:02;;;;;;;18.30;7.28;;;;;;;-141.50;100.00;63355.56;5095307;28;20071;-77
2022/05/10 05:15:29;;;;;;;16.45;7.95;;;;;;;-141.50;100.00;63355.56;5068657;28;20060;-78
2022/05/10 05:17:55;;;;;;;14.13;7.18;;;;;;;-141.50;100.00;63355.56;5082886;28;20052;-80
2022/05/10 05:20:22;;;;;;;18.13;8.23;;;;;;;-141.50;100.00;63355.56;5059809;28;20052;-83
2022/05/10 05:22:49;;;;;;;15.05;6.97;;;;;;;-141.50;100.00;63355.56;5091117;28;20561;-80
2022/05/10 05:25:15;;;;;;;16.83;6.93;;;;;;;-141.50;100.00;63355.56;5074651;28;20404;-82
2022/05/10 05:27:42;;;;;;;12.45;6.15;;;;;;;-141.50;100.00;63355.56;5096230;28;20080;-83
2022/05/10 05:30:15;;;;;;;13.18;7.07;;;;;;;-141.50;100.00;63355.56;5095319;28;20764;-80
2022/05/10 05:32:42;;;;;;;14.60;6.32;;;;;;;-141.50;100.00;63355.56;5089316;28;20044;-82
2022/05/10 05:35:11;;;;;;;16.80;6.18;;;;;;;-141.50;100.00;63355.56;5105463;28;20052;-80
2022/05/10 05:37:37;;;;;;;12.35;6.30;;;;;;;-141.50;100.00;63355.56;5092942;28;20112;-78
2022/05/10 05:40:14;;;;;;;10.18;6.22;;;;;;;-141.50;100.00;63355.56;5075252;28;20063;-82
2022/05/10 05:42:45;;;;;;;11.85;5.85;;;;;;;-141.50;100.00;63355.56;5058254;28;20127;-79
2022/05/10 05:45:13;;;;;;;13.77;5.88;;;;;;;-141.50;100.00;63355.56;5074632;28;20080;-81
2022/05/10 05:47:41;;;;;;;14.85;6.05;;;;;;;-141.50;100.00;63355.56;5070513;28;20101;-81
2022/05/10 05:50:10;;;;;;;15.95;5.55;;;;;;;-141.50;100.00;63355.56;5095381;28;20052;-79
2022/05/10 05:52:38;;;;;;;14.48;5.20;;;;;;;-141.50;100.00;63355.56;5094653;28;20055;-83
2022/05/10 05:55:05;;;;;;;15.57;5.35;;;;;;;-141.50;100.00;63355.56;5095633;28;20101;-83
2022/05/10 05:57:34;;;;;;;10.18;5.20;;;;;;;-141.50;100.00;63355.56;5076762;28;20062;-82
2022/05/10 06:00:00;;;;;;;14.52;5.38;;;;;;;-141.50;100.00;63355.56;5057727;28;20060;-82
2022/05/10 06:02:27;;;;;;;11.52;4.75;;;;;;;-141.50;100.00;63355.56;5074965;28;20052;-80
2022/05/10 06:04:54;;;;;;;15.07;5.40;;;;;;;-141.50;100.00;63355.56;5089970;28;20036;-82
2022/05/10 06:07:20;;;;;;;9.23;5.00;;;;;;;-141.50;100.00;63355.56;5079271;28;20569;-81
2022/05/10 06:09:48;;;;;;;14.10;5.53;;;;;;;-141.50;100.00;63355.56;5077662;28;20124;-78
2022/05/10 06:12:18;;;;;;;18.67;5.22;;;;;;;-141.50;100.00;63355.56;5096903;28;20498;-83
2022/05/10 06:14:45;;;;;;;14.02;4.68;;;;;;;-141.50;100.00;63355.56;5065495;28;20044;-83
2022/05/10 06:17:14;;;;;;;10.48;5.18;;;;;;;-141.50;100.00;63355.56;5053254;28;20116;-81
2022/05/10 06:19:42;;;;;;;7.15;3.85;;;;;;;-141.50;100.00;63355.56;5072305;28;20082;-82
2022/05/10 06:22:10;;;;;;;6.40;3.72;;;;;;;-141.50;100.00;63355.56;5085310;28;20074;-80
2022/05/10 06:24:38;;;;;;;5.85;3.72;;;;;;;-141.50;100.00;63355.56;5071744;28;21083;-83
2022/05/10 06:27:07;;;;;;;6.90;3.28;;;;;;;-141.50;100.00;63355.56;5080303;28;20075;-80
2022/05/10 06:29:34;;;;;;;5.70;3.20;;;;;;;-141.50;100.00;63355.56;5078565;28;20448;-83
2022/05/10 06:32:00;;;;;;;6.70;3.45;;;;;;;-141.50;100.00;63355.56;5073210;28;20091;-82
2022/05/10 06:34:27;;;;;;;5.00;3.53;;;;;;;-141.50;100.00;63355.56;5072904;28;20045;-83
2022/05/10 06:36:54;;;;;;;6.22;3.47;;;;;;;-141.50;100.00;63355.56;5075162;28;20067;-80
2022/05/10 06:39:20;;;;;;;5.47;3.78;;;;;;;-141.50;100.00;63355.56;5072429;28;20504;-85
2022/05/10 06:41:47;;;;;;;10.30;3.90;;;;;;;-141.50;100.00;63355.56;5054965;28;20489;-80
2022/05/10 06:44:14;;;;;;;5.97;3.35;;;;;;;-141.50;100.00;63355.56;5074647;28;20051;-84
2022/05/10 06:46:40;;;;;;;7.68;3.33;;;;;;;-141.50;100.00;63355.56;5076410;28;20071;-83
2022/05/10 06:49:09;;;;;;;7.20;3.25;;;;;;;-141.50;100.00;63355.56;5094941;28;20067;-79
2022/05/10 06:51:40;;;;;;;6.55;3.28;;;;;;;-141.50;100.00;63355.56;5100230;28;20044;-83
2022/05/10 06:54:07;;;;;;;6.50;3.53;;;;;;;-141.50;100.00;63355.56;5096904;28;20068;-84
2022/05/10 06:56:33;;;;;;;8.30;3.53;;;;;;;-141.50;100.00;63355.56;5094497;28;20074;-84
2022/05/10 06:59:00;;;;;;;10.75;4.07;;;;;;;-141.50;100.00;63355.56;5080989;28;20099;-84
2022/05/10 07:01:26;;;;;;;10.68;3.42;;;;;;;-141.50;100.00;63355.56;5074739;28;20044;-83
2022/05/10 07:03:53;;;;;;;5.63;3.80;;;;;;;-141.50;100.00;63355.56;5075075;28;20068;-83
2022/05/10 07:06:25;;;;;;;8.18;3.80;;;;;;;-141.50;100.00;63355.56;5086744;28;20056;-84
2022/05/10 07:08:52;;;;;;;7.78;3.75;;;;;;;-141.50;100.00;63355.56;5069602;28;20083;-82
2022/05/10 07:11:19;;;;;;;7.78;3.38;;;;;;;-141.50;100.00;63355.56;5078050;28;20057;-80
2022/05/10 07:13:45;;;;;;;4.97;3.17;;;;;;;-141.50;100.00;63355.56;5085515;28;20114;-78
2022/05/10 07:16:12;;;;;;;7.93;3.30;;;;;;;-141.50;100.00;63355.56;5081285;28;20069;-82
2022/05/10 07:18:39;;;;;;;6.78;3.28;;;;;;;-141.50;100.00;63355.56;5091348;28;20078;-82
2022/05/10 07:21:06;;;;;;;9.27;3.30;;;;;;;-141.50;100.00;63355.56;5103982;28;20066;-80
2022/05/10 07:23:33;;;;;;;8.43;3.25;;;;;;;-141.50;100.00;63355.56;5090747;28;20097;-83
2022/05/10 07:26:03;;;;;;;5.47;3.22;;;;;;;-141.50;100.00;63355.56;5072613;28;20135;-82
2022/05/10 07:28:30;;;;;;;6.43;2.90;;;;;;;-141.50;100.00;63355.56;5069427;28;20106;-78
2022/05/10 07:30:58;;;;;;;4.32;2.85;;;;;;;-141.50;100.00;63355.56;5093552;28;20056;-82
2022/05/10 07:33:26;;;;;;;6.07;3.20;;;;;;;-141.50;100.00;63355.56;5073834;28;20057;-82
2022/05/10 07:38:39;;;;;;;5.05;3.17;;;;;;;-141.50;100.00;63355.56;5074634;28;20110;-83
2022/05/10 07:41:05;;;;;;;8.70;3.30;;;;;;;-141.50;100.00;63355.56;5066166;28;20052;-82
2022/05/10 07:43:37;;;;;;;5.75;3.00;;;;;;;-141.50;100.00;63355.56;5048353;28;20068;-77
2022/05/10 07:46:05;;;;;;;6.13;2.85;;;;;;;-141.50;100.00;63355.56;5068604;28;20063;-82
2022/05/10 07:48:32;;;;;;;5.00;2.75;;;;;;;-141.50;100.00;63355.56;5070799;28;20109;-82
2022/05/10 07:51:02;;;;;;;7.05;3.33;;;;;;;-141.50;100.00;63355.56;5079013;28;20455;-84
2022/05/10 07:53:35;;;;;;;6.95;3.35;;;;;;;-141.50;100.00;63355.56;5055767;28;20181;-82
2022/05/10 07:56:03;;;;;;;8.75;3.58;;;;;;;-141.50;100.00;63355.56;5084908;28;20435;-82
2022/05/10 07:58:30;;;;;;;10.25;3.65;;;;;;;-141.50;100.00;63355.56;5070075;28;20083;-83
2022/05/10 08:00:57;;;;;;;9.93;3.20;;;;;;;-141.50;100.00;63355.56;5053575;28;20079;-81
2022/05/10 08:03:25;;;;;;;9.02;3.35;;;;;;;-141.50;100.00;63355.56;5070773;28;20052;-80
2022/05/10 08:05:56;;;;;;;8.32;3.40;;;;;;;-141.50;100.00;63355.56;5073356;28;20043;-81
2022/05/10 08:08:24;;;;;;;8.18;3.70;;;;;;;-141.50;100.00;63355.56;5078232;28;20044;-81
2022/05/10 08:10:53;;;;;;;6.82;3.40;;;;;;;-141.50;100.00;63355.56;5094534;28;20576;-82
2022/05/10 08:13:24;;;;;;;13.13;3.80;;;;;;;-141.50;100.00;63355.56;5074227;28;20079;-79
2022/05/10 08:15:52;;;;;;;6.53;3.38;;;;;;;-141.50;100.00;63355.56;5086899;28;20080;-85
2022/05/10 08:18:20;;;;;;;8.63;3.35;;;;;;;-141.50;100.00;63355.56;5097084;28;20146;-84
2022/05/10 08:20:48;;;;;;;6.93;3.50;;;;;;;-141.50;100.00;63355.56;5089409;28;20048;-84
2022/05/10 08:23:17;;;;;;;7.63;3.38;;;;;;;-141.50;100.00;63355.56;5077310;28;20106;-83
2022/05/10 08:25:44;;;;;;;4.15;3.10;;;;;;;-141.50;100.00;63355.56;5074497;28;20121;-84
2022/05/10 08:28:13;;;;;;;7.47;3.50;;;;;;;-141.50;100.00;63355.56;5097993;28;20416;-83
2022/05/10 08:30:46;;;;;;;7.65;3.58;;;;;;;-141.50;100.00;63355.56;5097917;28;20051;-84
2022/05/10 08:33:26;;;;;;;7.88;3.60;;;;;;;-141.50;100.00;63355.56;5097536;28;20078;-82
2022/05/10 08:35:55;;;;;;;7.85;3.20;;;;;;;-141.50;100.00;63355.56;5080603;28;20067;-84
2022/05/10 08:38:22;;;;;;;5.22;3.53;;;;;;;-141.50;100.00;63355.56;5109521;28;20412;-84
2022/05/10 08:40:53;;;;;;;6.40;3.63;;;;;;;-141.50;100.00;63355.56;5102512;28;20495;-81
2022/05/10 08:43:24;;;;;;;5.80;3.20;;;;;;;-141.50;100.00;63355.56;5081471;28;20040;-83
2022/05/10 08:45:52;;;;;;;6.10;3.30;;;;;;;-141.50;100.00;63355.56;5086410;28;20048;-84
2022/05/10 08:48:19;;;;;;;7.20;3.45;;;;;;;-141.50;100.00;63355.56;5083966;28;20045;-78
2022/05/10 08:50:48;;;;;;;6.47;3.42;;;;;;;-141.50;100.00;63355.56;5062941;28;20088;-81
2022/05/10 08:53:18;;;;;;;5.75;3.75;;;;;;;-141.50;100.00;63355.56;5066432;28;20048;-82
2022/05/10 08:56:01;;;;;;;14.13;3.58;;;;;;;-141.50;100.00;63355.56;5062146;28;20052;-80
2022/05/10 08:58:47;;;;;;;8.25;3.17;;;;;;;-141.50;100.00;63355.56;5071857;28;20064;-80
2022/05/10 09:01:41;;;;;;;7.97;3.30;;;;;;;-141.50;100.00;63355.56;5076102;28;20115;-80
2022/05/10 09:04:25;;;;;;;6.45;3.65;;;;;;;-141.50;100.00;63355.56;5066618;28;20051;-84
2022/05/10 09:07:03;;;;;;;6.70;3.35;;;;;;;-141.50;100.00;63355.56;5093447;28;20040;-84
2022/05/10 09:09:34;;;;;;;8.35;3.60;;;;;;;-141.50;100.00;63355.56;5103176;28;20051;-79
2022/05/10 09:12:10;;;;;;;6.80;3.00;;;;;;;-141.50;100.00;63355.56;5084343;28;20132;-80
2022/05/10 09:15:00;;;;;;;5.68;3.70;;;;;;;-141.50;100.00;63355.56;5057192;28;20048;-80
2022/05/10 09:17:31;;;;;;;10.05;3.63;;;;;;;-141.50;100.00;63355.56;5074644;28;20428;-76
2022/05/10 09:19:59;;;;;;;7.10;3.63;;;;;;;-141.50;100.00;63355.56;5075328;28;20052;-83
2022/05/10 09:23:05;;;;;;;7.55;3.15;;;;;;;-141.50;100.00;63355.56;5075412;28;20052;-80
2022/05/10 09:25:37;;;;;;;8.80;3.72;;;;;;;-141.50;100.00;63355.56;5061859;28;20129;-82
2022/05/10 09:28:22;;;;;;;11.13;3.67;;;;;;;-141.50;100.00;63355.56;5066654;28;20105;-81
2022/05/10 09:36:27;;;;;;;6.97;3.65;;;;;;;-141.50;100.00;63355.56;5070344;28;20748;-78
2022/05/10 09:39:15;;;;;;;9.15;3.53;;;;;;;-141.50;100.00;63355.56;5064275;28;20462;-82
2022/05/10 09:41:51;;;;;;;6.68;3.75;;;;;;;-141.50;100.00;63355.56;5067394;28;20051;-80
2022/05/10 09:44:24;;;;;;;8.25;3.63;;;;;;;-141.50;100.00;63355.56;5084170;28;20121;-77
2022/05/10 09:47:10;;;;;;;8.32;3.45;;;;;;;-141.50;100.00;63355.56;5073420;28;20063;-83
2022/05/10 09:49:37;;;;;;;;;;;;;;;-141.50;100.00;63355.56;5097749;28;20079;-83
2022/05/10 09:52:07;;;;;;;6.40;3.72;;;;;;;-141.50;100.00;63355.56;5074531;28;19920;-82
2022/05/10 09:54:37;;;;;;;5.75;3.42;;;;;;;-141.50;100.00;63355.56;5092705;28;20086;-86
2022/05/10 09:57:09;;;;;;;9.32;3.33;;;;;;;-141.50;100.00;63355.56;5074819;28;20135;-84
2022/05/10 09:59:44;;;;;;;7.45;3.47;;;;;;;-141.50;100.00;63355.56;5060125;28;20053;-82
2022/05/10 10:02:32;;;;;;;10.98;3.63;;;;;;;-141.50;100.00;63355.56;5071931;28;20508;-82
2022/05/10 10:05:18;;;;;;;4.20;3.30;;;;;;;-141.50;100.00;63355.56;5086756;28;20052;-83
2022/05/10 10:07:56;;;;;;;5.80;3.55;;;;;;;-141.50;100.00;63355.56;5100499;28;20618;-79
2022/05/10 10:10:25;;;;;;;7.50;3.15;;;;;;;-141.50;100.00;63355.56;5113584;28;20054;-82
2022/05/10 10:12:52;;;;;;;7.40;2.97;;;;;;;-141.50;100.00;63355.56;5057257;28;20080;-80
2022/05/10 10:15:35;;;;;;;8.25;3.13;;;;;;;-141.50;100.00;63355.56;5073243;28;20052;-81
2022/05/10 10:18:06;;;;;;;6.43;3.10;;;;;;;-141.50;100.00;63355.56;5073427;28;20129;-80
2022/05/10 10:20:51;;;;;;;7.28;3.08;;;;;;;-141.50;100.00;63355.56;5078950;28;20063;-76
2022/05/10 10:23:32;;;;;;;6.50;2.80;;;;;;;-141.50;100.00;63355.56;5064785;28;20079;-77
2022/05/10 10:26:11;;;;;;;4.38;2.90;;;;;;;-141.50;100.00;63355.56;5094923;28;20101;-80
2022/05/10 10:28:55;;;;;;;5.53;3.10;;;;;;;-141.50;100.00;63355.56;5094961;28;20071;-81
2022/05/10 10:31:26;;;;;;;7.05;2.80;;;;;;;-141.50;100.00;63355.56;5093188;28;20059;-84
2022/05/10 10:34:09;;;;;;;6.20;2.53;;;;;;;-141.50;100.00;63355.56;5080261;28;20051;-84
2022/05/10 10:37:01;;;;;;;4.60;2.53;;;;;;;-141.50;100.00;63355.56;5101718;28;20085;-80
2022/05/10 10:39:37;;;;;;;4.22;2.55;;;;;;;-141.50;100.00;63355.56;5089535;28;20056;-76
2022/05/10 10:42:32;;;;;;;5.22;2.70;;;;;;;-141.50;100.00;63355.56;5084278;28;20095;-77
2022/05/10 10:45:03;;;;;;;5.03;2.60;;;;;;;-141.50;100.00;63355.56;5074493;28;20056;-79
2022/05/10 10:47:50;;;;;;;7.30;2.80;;;;;;;-141.50;100.00;63355.56;5057143;28;20131;-83
2022/05/10 10:50:25;;;;;;;4.78;2.70;;;;;;;-141.50;100.00;63355.56;5057091;28;20059;-81
2022/05/10 10:52:54;;;;;;;6.93;2.90;;;;;;;-141.50;100.00;63355.56;5044071;28;20075;-78
2022/05/10 10:55:30;;;;;;;9.60;2.50;;;;;;;-141.50;100.00;63355.56;5065642;28;20116;-77
2022/05/10 10:58:19;;;;;;;5.18;2.72;;;;;;;-141.50;100.00;63355.56;5056280;28;20488;-78
2022/05/10 11:00:55;;;;;;;6.45;2.63;;;;;;;-141.50;100.00;63355.56;5037292;28;20055;-79
2022/05/10 11:03:34;;;;;;;6.10;2.70;;;;;;;-141.50;100.00;63355.56;5053997;28;20056;-76
2022/05/10 11:06:22;;;;;;;5.38;2.60;;;;;;;-141.50;100.00;63355.56;5101578;28;20043;-76
2022/05/10 11:09:03;;;;;;;4.43;2.35;;;;;;;-141.50;100.00;63355.56;5067839;28;20059;-77
2022/05/10 11:12:10;;;;;;;5.32;2.45;;;;;;;-141.50;100.00;63355.56;5086662;28;20143;-77
2022/05/10 11:14:54;;;;;;;5.10;2.60;;;;;;;-141.50;100.00;63355.56;5073971;28;20052;-79
2022/05/10 11:17:42;;;;;;;8.68;2.92;;;;;;;-141.50;100.00;63355.56;5074624;28;20071;-80
2022/05/10 11:20:22;;;;;;;3.97;2.92;;;;;;;-141.50;100.00;63355.56;5088835;28;20044;-81
2022/05/10 11:22:52;;;;;;;7.10;3.20;;;;;;;-141.50;100.00;63355.56;5087816;28;20058;-79
2022/05/10 11:25:28;;;;;;;4.50;2.97;;;;;;;-141.50;100.00;63355.56;5065986;28;20158;-77
2022/05/10 11:28:15;;;;;;;3.78;2.90;;;;;;;-141.50;100.00;63355.56;5080033;28;20499;-78
2022/05/10 11:31:21;;;;;;;7.78;3.10;;;;;;;-141.50;100.00;63355.56;5097324;28;20072;-81
2022/05/10 11:33:57;;;;;;;3.53;2.90;;;;;;;-141.50;100.00;63355.56;5051392;28;20071;-79
2022/05/10 11:36:30;;;;;;;11.05;3.00;;;;;;;-141.50;100.00;63355.56;5083237;28;20609;-81
2022/05/10 11:39:09;;;;;;;4.28;2.75;;;;;;;-141.50;100.00;63355.56;5094039;28;20048;-79
2022/05/10 11:42:17;;;;;;;7.28;2.83;;;;;;;-141.50;100.00;63355.56;5089325;28;20045;-79
2022/05/10 11:45:14;;;;;;;3.75;2.42;;;;;;;-141.50;100.00;63355.56;5074883;28;20067;-78